Time;durP1;ratioP1;P1;durP2;ratioP2;P2;SDS_P1;SDS_P2;PMS_P1;PMS_P2;Temp;Humidity;BMP_temperature;BMP_pressure;BME280_temperature;BME280_humidity;BME280_pressure;Samples;Min_cycle;Max_cycle;Signal;HPM_P1;HPM_P2
2022/06/01 00:01:53;;;;;;;45.17;40.47;;;10.10;99.90;;;-141.84;100.00;16799.00;5070533;28;20600;-55
2022/06/01 00:04:22;;;;;;;41.47;37.27;;;10.20;99.90;;;-141.84;100.00;16807.13;5070298;28;20577;-54
2022/06/01 00:06:51;;;;;;;35.83;32.30;;;10.10;99.90;;;-141.84;100.00;16790.88;5071113;28;20208;-54
2022/06/01 00:09:19;;;;;;;30.77;27.77;;;10.10;99.90;;;-141.84;100.00;16801.03;5070410;28;20613;-56
2022/06/01 00:11:47;;;;;;;28.93;26.13;;;10.00;99.90;;;-141.84;100.00;16811.16;5070261;28;20262;-55
2022/06/01 00:14:15;;;;;;;23.53;20.97;;;10.00;99.90;;;-141.84;100.00;16815.22;5070378;28;20226;-55
2022/06/01 00:16:43;;;;;;;21.63;19.53;;;10.00;99.90;;;-141.84;100.00;16807.13;5070274;28;20311;-56
2022/06/01 00:19:13;;;;;;;19.50;17.50;;;10.00;99.90;;;-141.84;100.00;16784.78;5070520;28;20205;-52
2022/06/01 00:24:23;;;;;;;17.50;15.73;;;9.90;99.90;;;-141.84;100.00;16794.94;5070134;28;20419;-58
2022/06/01 00:26:52;;;;;;;17.27;15.57;;;9.90;99.90;;;-141.84;100.00;16768.53;5070104;28;20227;-58
2022/06/01 00:29:20;;;;;;;19.37;17.50;;;9.90;99.90;;;-141.84;100.00;16813.19;5073248;28;20228;-54
2022/06/01 00:31:48;;;;;;;18.37;16.57;;;9.90;99.90;;;-141.84;100.00;16764.47;5073654;28;20224;-57
2022/06/01 00:34:17;;;;;;;16.40;14.80;;;9.90;99.90;;;-141.84;100.00;16764.47;5065657;28;20290;-54
2022/06/01 00:36:45;;;;;;;15.93;14.33;;;9.90;99.90;;;-141.84;100.00;16780.72;5054361;28;20599;-57
2022/06/01 00:39:13;;;;;;;15.30;13.90;;;9.80;99.90;;;-141.84;100.00;16770.56;5054211;28;20229;-57
2022/06/01 00:41:41;;;;;;;15.67;14.07;;;9.80;99.90;;;-141.84;100.00;16772.59;5053718;28;20225;-55
2022/06/01 00:44:09;;;;;;;15.23;13.67;;;9.80;99.90;;;-141.84;100.00;16778.69;5071233;28;20238;-54
2022/06/01 00:46:37;;;;;;;15.07;13.47;;;9.80;99.90;;;-141.84;100.00;16760.41;5074069;28;20242;-55
2022/06/01 00:49:16;;;;;;;17.27;15.63;;;9.70;99.90;;;-141.84;100.00;16768.53;5073945;28;20210;-55
2022/06/01 00:51:47;;;;;;;21.50;19.50;;;9.70;99.90;;;-141.84;100.00;16782.75;5074578;28;20185;-56
2022/06/01 00:54:16;;;;;;;22.73;20.53;;;9.70;99.90;;;-141.84;100.00;16863.97;5073824;28;20234;-56
2022/06/01 00:56:48;;;;;;;21.67;19.57;;;9.70;99.90;;;-141.84;100.00;16764.47;5073730;28;20245;-55
2022/06/01 00:59:22;;;;;;;23.77;21.37;;;9.70;99.90;;;-141.84;100.00;16764.47;5073966;28;20419;-57
2022/06/01 01:01:53;;;;;;;24.50;22.10;;;9.70;99.90;;;-141.84;100.00;16760.41;5073761;28;20244;-56
2022/06/01 01:04:24;;;;;;;29.50;26.40;;;9.70;99.90;;;-141.84;100.00;16778.69;5073856;28;20184;-53
2022/06/01 01:06:53;;;;;;;24.57;22.17;;;9.70;99.90;;;-141.84;100.00;16774.63;5074332;28;20191;-56
2022/06/01 01:09:21;;;;;;;23.33;20.93;;;9.60;99.90;;;-141.84;100.00;16754.31;5073534;28;20238;-58
2022/06/01 01:11:53;;;;;;;28.27;25.47;;;9.70;99.90;;;-141.84;100.00;16782.75;5073163;28;20239;-57
2022/06/01 01:14:27;;;;;;;24.77;22.37;;;9.70;99.90;;;-141.84;100.00;16803.06;5073526;28;20237;-55
2022/06/01 01:16:55;;;;;;;24.37;22.00;;;9.70;99.90;;;-141.84;100.00;16762.44;5073554;28;20220;-55
2022/06/01 01:19:32;;;;;;;28.60;25.80;;;9.70;99.90;;;-141.84;100.00;16799.00;5073553;28;20299;-55
2022/06/01 01:22:21;;;;;;;30.37;27.40;;;9.60;99.90;;;-141.84;100.00;16770.56;5074055;28;20276;-55
2022/06/01 01:25:19;;;;;;;28.40;25.50;;;9.70;99.90;;;-141.84;100.00;16738.06;5073693;28;20209;-57
2022/06/01 01:27:51;;;;;;;27.77;25.07;;;9.60;99.90;;;-141.84;100.00;16754.31;5073038;28;20244;-53
2022/06/01 01:30:48;;;;;;;22.37;20.17;;;9.60;99.90;;;-141.84;100.00;16807.13;5073079;28;20727;-55
2022/06/01 01:33:20;;;;;;;22.23;19.93;;;9.60;99.90;;;-141.84;100.00;16738.06;5072651;28;20224;-58
2022/06/01 01:35:52;;;;;;;18.20;16.40;;;9.50;99.90;;;-141.84;100.00;16748.22;5052970;28;20233;-56
2022/06/01 01:38:29;;;;;;;21.80;19.50;;;9.50;99.90;;;-141.84;100.00;16784.78;5053155;28;20316;-56
2022/06/01 01:41:08;;;;;;;19.73;17.83;;;9.50;99.90;;;-141.84;100.00;16727.91;5051865;28;20255;-56
2022/06/01 01:43:47;;;;;;;16.57;14.73;;;9.50;99.90;;;-141.84;100.00;16744.16;5065395;28;20226;-56
2022/06/01 01:46:15;;;;;;;16.23;14.63;;;9.50;99.90;;;-141.84;100.00;16734.00;5073013;28;20188;-58
2022/06/01 01:48:43;;;;;;;15.30;13.80;;;9.50;99.90;;;-141.84;100.00;16727.91;5073372;28;20204;-56
2022/06/01 01:51:12;;;;;;;15.23;13.73;;;9.40;99.90;;;-141.84;100.00;16699.47;5072577;28;20290;-56
2022/06/01 01:53:41;;;;;;;15.50;13.93;;;9.40;99.90;;;-141.84;100.00;16736.03;5072378;28;20331;-54
2022/06/01 01:56:25;;;;;;;16.37;14.77;;;9.40;99.90;;;-141.84;100.00;16723.84;5072595;28;20324;-55
2022/06/01 01:59:17;;;;;;;15.73;14.07;;;9.30;99.90;;;-141.84;100.00;16705.56;5072775;28;20278;-57
2022/06/01 02:01:56;;;;;;;15.93;14.17;;;9.40;99.90;;;-141.84;100.00;16742.13;5072573;28;20731;-56
2022/06/01 02:07:32;;;;;;;15.70;14.17;;;9.30;99.90;;;-141.84;100.00;16719.78;5071983;28;20188;-57
2022/06/01 02:13:04;;;;;;;15.23;13.70;;;9.20;99.90;;;-141.84;100.00;16697.44;4989900;28;20237;-53
2022/06/01 02:15:39;;;;;;;16.43;14.70;;;9.20;99.90;;;-141.84;100.00;16719.78;4990650;28;20198;-56
2022/06/01 02:18:15;;;;;;;20.03;17.97;;;9.20;99.90;;;-141.84;100.00;16679.19;5032289;28;20307;-56
2022/06/01 02:20:49;;;;;;;22.63;20.43;;;9.20;99.90;;;-141.84;100.00;16709.63;5071541;28;20738;-57
2022/06/01 02:23:18;;;;;;;23.27;20.87;;;9.30;99.90;;;-141.84;100.00;16725.88;5071551;28;20220;-56
2022/06/01 02:25:50;;;;;;;35.17;31.57;;;9.20;99.90;;;-141.84;100.00;16701.50;5071981;28;20223;-58
2022/06/01 02:28:21;;;;;;;30.57;27.47;;;9.20;99.90;;;-141.84;100.00;16707.59;5071570;28;20189;-57
2022/06/01 02:30:50;;;;;;;30.70;27.70;;;9.20;99.90;;;-141.84;100.00;16677.16;5072347;28;20392;-58
2022/06/01 02:33:23;;;;;;;27.23;24.43;;;9.20;99.90;;;-141.84;100.00;16695.41;5070915;28;20279;-54
2022/06/01 02:35:58;;;;;;;28.40;25.57;;;9.20;99.90;;;-141.84;100.00;16699.47;5051473;28;20229;-55
2022/06/01 02:38:35;;;;;;;28.07;25.30;;;9.20;99.90;;;-141.84;100.00;16705.56;5051533;28;20312;-55
2022/06/01 02:41:04;;;;;;;24.67;22.17;;;9.20;99.90;;;-141.84;100.00;16675.13;5051508;28;20658;-57
2022/06/01 02:43:50;;;;;;;21.90;19.63;;;9.20;99.90;;;-141.84;100.00;16685.25;5063570;28;20638;-57
2022/06/01 02:46:18;;;;;;;21.47;19.30;;;9.20;99.90;;;-141.84;100.00;16723.84;5072061;28;20267;-53
2022/06/01 02:48:46;;;;;;;20.43;18.43;;;9.10;99.90;;;-141.84;100.00;16697.44;5071972;28;20204;-55
2022/06/01 02:51:17;;;;;;;19.37;17.30;;;9.10;99.90;;;-141.84;100.00;16673.09;5071084;28;20233;-56
2022/06/01 02:53:45;;;;;;;19.23;17.30;;;9.10;99.90;;;-141.84;100.00;16697.44;5071080;28;20311;-57
2022/06/01 02:56:15;;;;;;;17.60;15.70;;;9.10;99.90;;;-141.84;100.00;16699.47;5071135;28;20315;-55
2022/06/01 02:58:44;;;;;;;17.37;15.67;;;9.20;99.90;;;-141.84;100.00;16691.34;5071035;28;20703;-57
2022/06/01 03:01:12;;;;;;;17.13;15.43;;;9.20;99.90;;;-141.84;100.00;16727.91;5071286;28;20205;-53
2022/06/01 03:03:40;;;;;;;18.00;16.10;;;9.20;99.90;;;-141.84;100.00;16723.84;5071539;28;20291;-57
2022/06/01 03:06:08;;;;;;;18.53;16.53;;;9.20;99.90;;;-141.84;100.00;16689.31;5070714;28;20225;-56
2022/06/01 03:08:37;;;;;;;18.70;16.70;;;9.20;99.90;;;-141.84;100.00;16673.09;5070763;28;20637;-57
2022/06/01 03:11:05;;;;;;;17.77;15.87;;;9.20;99.90;;;-141.84;100.00;16681.19;5071056;28;20311;-57
2022/06/01 03:13:33;;;;;;;19.17;17.03;;;9.10;99.90;;;-141.84;100.00;16693.38;5070729;28;20221;-55
2022/06/01 03:16:02;;;;;;;19.87;17.87;;;9.20;99.90;;;-141.84;100.00;16683.22;5071549;28;20201;-58
2022/06/01 03:18:31;;;;;;;20.37;18.07;;;9.20;99.90;;;-141.84;100.00;16679.19;5070499;28;20227;-55
2022/06/01 03:20:59;;;;;;;18.87;16.87;;;9.40;99.90;;;-141.84;100.00;16654.81;5070501;28;20719;-56
2022/06/01 03:23:27;;;;;;;19.60;16.90;;;9.40;99.90;;;-141.84;100.00;16669.03;5070747;28;20220;-55
2022/06/01 03:25:56;;;;;;;19.23;17.27;;;9.40;99.90;;;-141.84;100.00;16681.19;5070713;28;20602;-54
2022/06/01 03:28:24;;;;;;;19.67;17.67;;;9.40;99.90;;;-141.84;100.00;16658.88;5070612;28;20248;-57
2022/06/01 03:30:52;;;;;;;18.97;16.97;;;9.40;99.90;;;-141.84;100.00;16675.13;5071273;28;20204;-55
2022/06/01 03:33:21;;;;;;;18.53;15.93;;;9.30;99.90;;;-141.84;100.00;16673.09;5069564;28;20774;-54
2022/06/01 03:35:49;;;;;;;17.97;16.17;;;9.40;99.90;;;-141.84;100.00;16693.38;5050260;28;20771;-57
2022/06/01 03:38:17;;;;;;;20.07;16.53;;;9.50;99.90;;;-141.84;100.00;16667.00;5050504;28;20228;-56
2022/06/01 03:40:46;;;;;;;18.07;16.27;;;9.50;99.90;;;-141.84;100.00;16677.16;5050426;28;20229;-56
2022/06/01 03:43:14;;;;;;;20.00;16.93;;;9.50;99.90;;;-141.84;100.00;16681.19;5059997;28;20242;-53
2022/06/01 03:45:58;;;;;;;20.63;17.50;;;9.50;99.90;;;-141.84;100.00;16683.22;5070801;28;20278;-55
2022/06/01 03:48:31;;;;;;;20.27;16.20;;;9.60;99.90;;;-141.84;100.00;16671.06;5070418;28;20228;-53
2022/06/01 03:51:00;;;;;;;18.63;16.67;;;9.60;99.90;;;-141.84;100.00;16709.63;5070115;28;20410;-55
2022/06/01 03:53:29;;;;;;;18.33;16.43;;;9.70;99.90;;;-141.84;100.00;16691.34;5070382;28;20250;-54
2022/06/01 03:55:57;;;;;;;19.00;17.00;;;9.70;99.90;;;-141.84;100.00;16685.25;5070274;28;20278;-54
2022/06/01 03:58:26;;;;;;;17.10;15.40;;;9.70;99.90;;;-141.84;100.00;16644.66;5070329;28;20248;-54
2022/06/01 04:00:54;;;;;;;17.20;15.40;;;9.80;99.90;;;-141.84;100.00;16671.06;5070833;28;20197;-54
2022/06/01 04:03:23;;;;;;;18.33;16.43;;;9.80;99.90;;;-141.84;100.00;16662.94;5073537;28;20247;-53
2022/06/01 04:05:53;;;;;;;18.60;15.43;;;9.90;99.90;;;-141.84;100.00;16685.25;5076711;28;20227;-57
2022/06/01 04:08:22;;;;;;;17.83;16.03;;;9.90;99.90;;;-141.84;100.00;16648.72;5077026;28;20228;-55
2022/06/01 04:10:50;;;;;;;17.93;16.03;;;10.00;99.90;;;-141.84;100.00;16691.34;5076965;28;20224;-58
2022/06/01 04:13:18;;;;;;;16.77;15.17;;;10.00;99.90;;;-141.84;100.00;16681.19;5076917;28;20209;-55
2022/06/01 04:15:46;;;;;;;17.70;15.90;;;10.10;99.90;;;-141.84;100.00;16683.22;5076577;28;20217;-55
2022/06/01 04:18:14;;;;;;;17.47;15.67;;;10.10;99.90;;;-141.84;100.00;16681.19;5076660;28;20248;-54
2022/06/01 04:20:43;;;;;;;17.60;15.80;;;10.10;99.90;;;-141.84;100.00;16685.25;5076642;28;20224;-55
2022/06/01 04:23:13;;;;;;;19.87;16.70;;;10.20;99.90;;;-141.84;100.00;16669.03;5076982;28;20235;-55
2022/06/01 04:25:41;;;;;;;16.73;15.10;;;10.30;99.90;;;-141.84;100.00;16689.31;5076519;28;20251;-55
2022/06/01 04:28:09;;;;;;;17.97;15.97;;;10.40;99.90;;;-141.84;100.00;16664.97;5076395;28;20197;-56
2022/06/01 04:30:38;;;;;;;17.83;16.07;;;10.40;99.90;;;-141.84;100.00;16656.84;5076814;28;20213;-55
2022/06/01 04:33:07;;;;;;;15.80;14.17;;;10.60;99.90;;;-141.84;100.00;16612.16;5076674;28;20634;-56
2022/06/01 04:35:35;;;;;;;16.70;14.90;;;10.60;99.90;;;-141.84;100.00;16575.59;5056932;28;20235;-56
2022/06/01 04:38:15;;;;;;;14.93;13.53;;;10.70;99.90;;;-141.84;100.00;16618.25;5056550;28;20312;-55
2022/06/01 04:40:48;;;;;;;13.50;12.10;;;10.80;99.90;;;-141.84;99.63;16470.00;5056323;28;20312;-55
2022/06/01 04:43:18;;;;;;;13.00;11.70;;;10.90;99.90;;;-141.84;99.23;16482.19;5066253;28;20292;-55
2022/06/01 04:45:54;;;;;;;13.50;12.17;;;10.90;99.90;;;-141.84;100.00;16510.63;5077301;28;20176;-56
2022/06/01 04:48:23;;;;;;;13.93;12.53;;;11.10;99.90;;;-141.84;100.00;16561.41;5076509;28;20244;-56
2022/06/01 04:50:53;;;;;;;13.90;12.47;;;11.20;99.90;;;-141.84;100.00;16689.31;5076342;28;20252;-56
2022/06/01 04:53:22;;;;;;;11.60;10.40;;;11.90;99.90;;;-141.84;97.04;16589.81;5076652;28;20345;-55
2022/06/01 04:55:52;;;;;;;12.60;9.60;;;12.30;99.90;;;-141.84;92.07;16752.28;5076302;28;20704;-57
2022/06/01 04:58:22;;;;;;;12.53;10.43;;;12.30;99.90;;;-141.84;89.37;17006.13;5076076;28;20236;-56
2022/06/01 05:00:50;;;;;;;10.33;9.43;;;12.80;99.90;;;-141.84;76.99;17887.63;5077024;28;20224;-56
2022/06/01 05:03:18;;;;;;;9.38;8.57;;;13.80;99.90;;;-141.84;71.70;18360.97;5076122;28;20228;-57
2022/06/01 05:05:46;;;;;;;8.57;7.70;;;14.90;99.90;;;-141.84;61.26;18818.09;5075945;28;20227;-59
2022/06/01 05:08:16;;;;;;;7.07;6.43;;;15.80;99.90;;;-141.84;55.58;19141.19;5076164;28;20311;-56
2022/06/01 05:10:44;;;;;;;6.70;6.00;;;17.10;99.90;;;-141.84;48.41;19287.50;5076264;28;20230;-54
2022/06/01 05:13:19;;;;;;;6.20;5.70;;;17.70;99.90;;;-141.84;46.31;19403.31;5076474;28;20302;-56
2022/06/01 05:15:50;;;;;;;6.63;6.03;;;18.10;99.90;;;-141.84;44.72;19519.16;5072705;28;20599;-57
2022/06/01 05:18:20;;;;;;;6.85;6.13;;;18.40;99.90;;;-141.84;44.52;19511.03;5073111;28;20232;-55
2022/06/01 05:20:49;;;;;;;6.43;5.93;;;18.50;99.90;;;-141.84;43.57;19637.03;5072689;28;20229;-55
2022/06/01 05:23:18;;;;;;;6.20;5.70;;;18.50;99.90;;;-141.84;43.76;19612.63;5072931;28;20226;-56
2022/06/01 05:25:49;;;;;;;6.03;5.53;;;18.90;99.90;;;-141.84;42.31;19744.75;5072903;28;20312;-57
2022/06/01 05:28:24;;;;;;;5.28;4.85;;;18.60;99.90;;;-141.84;45.71;19450.06;5072514;28;20181;-59
2022/06/01 05:30:57;;;;;;;5.80;5.30;;;18.60;99.90;;;-141.84;51.27;19141.19;5073251;28;20355;-57
2022/06/01 05:33:26;;;;;;;5.53;5.03;;;17.50;99.90;;;-141.84;53.61;18996.91;5072817;28;20330;-56
2022/06/01 05:35:54;;;;;;;5.60;5.20;;;16.30;99.90;;;-141.84;58.58;18805.91;5072364;28;20312;-55
2022/06/01 05:38:22;;;;;;;5.97;5.47;;;15.50;99.90;;;-141.84;63.42;18659.63;5072612;28;20235;-54
2022/06/01 05:40:51;;;;;;;6.32;5.82;;;15.00;99.90;;;-141.84;66.82;18549.91;5072479;28;20224;-55
2022/06/01 05:43:22;;;;;;;6.13;5.63;;;14.60;99.90;;;-141.84;69.22;18452.41;5072509;28;20291;-52
2022/06/01 05:45:50;;;;;;;5.95;5.45;;;14.50;99.90;;;-141.84;72.12;18273.63;5073142;28;20181;-55
2022/06/01 05:48:21;;;;;;;6.47;5.53;;;14.10;99.90;;;-141.84;73.62;18161.88;5072519;28;20229;-57
2022/06/01 05:50:49;;;;;;;5.70;5.20;;;13.80;99.90;;;-141.84;74.62;17954.69;5072060;28;20242;-55
2022/06/01 05:53:17;;;;;;;5.47;5.07;;;13.60;99.90;;;-141.84;77.81;17702.78;5072143;28;20224;-55
2022/06/01 05:55:45;;;;;;;6.28;5.78;;;13.50;99.90;;;-141.84;75.89;17753.56;5072341;28;20311;-57
2022/06/01 05:58:16;;;;;;;6.30;5.57;;;13.40;99.90;;;-141.84;77.81;17605.28;5072091;28;20201;-57
2022/06/01 06:00:48;;;;;;;6.77;6.20;;;13.40;99.90;;;-141.84;78.13;17597.16;5072795;28;20273;-58
2022/06/01 06:03:19;;;;;;;6.85;6.25;;;13.30;99.90;;;-141.84;76.95;17639.81;5071961;28;20224;-56
2022/06/01 06:06:15;;;;;;;6.50;5.90;;;13.30;99.90;;;-141.84;78.38;17564.66;5072002;28;20600;-57
2022/06/01 06:08:49;;;;;;;6.30;5.70;;;13.50;99.90;;;-141.84;77.18;17680.44;5071971;28;20216;-54
2022/06/01 06:11:26;;;;;;;7.80;7.07;;;13.80;99.90;;;-141.84;74.17;17875.44;5071885;28;20224;-60
2022/06/01 06:13:56;;;;;;;5.75;5.25;;;14.20;99.90;;;-141.84;70.32;18137.50;5071904;28;20248;-61
2022/06/01 06:16:28;;;;;;;5.82;5.32;;;14.50;99.90;;;-141.84;67.86;18302.06;5071456;28;20605;-60
2022/06/01 06:18:57;;;;;;;5.85;5.13;;;14.90;99.90;;;-141.84;66.28;18371.13;5072155;28;20668;-59
2022/06/01 06:21:25;;;;;;;5.65;5.13;;;15.20;99.90;;;-141.84;63.12;18511.31;5071618;28;20231;-58
2022/06/01 06:23:58;;;;;;;5.13;4.60;;;15.40;99.90;;;-141.84;61.40;18602.75;5071562;28;20703;-60
2022/06/01 06:26:26;;;;;;;6.10;5.20;;;15.70;99.90;;;-141.84;59.50;18631.19;5071011;28;20227;-59
2022/06/01 06:28:54;;;;;;;5.43;4.93;;;15.90;99.90;;;-141.84;60.74;18653.53;5071268;28;20618;-60
2022/06/01 06:31:22;;;;;;;5.30;4.90;;;16.00;99.90;;;-141.84;62.51;18578.38;5071571;28;20203;-58
2022/06/01 06:33:51;;;;;;;4.90;4.50;;;16.10;99.90;;;-141.84;64.36;18539.75;5071752;28;20300;-59
2022/06/01 06:36:19;;;;;;;5.45;4.95;;;16.20;99.90;;;-141.84;63.19;18582.44;5070843;28;20379;-60
2022/06/01 06:38:47;;;;;;;5.03;4.63;;;16.40;99.90;;;-141.84;58.52;18708.41;5054484;28;20328;-59
2022/06/01 06:41:16;;;;;;;5.10;4.68;;;16.40;99.90;;;-141.84;60.85;18651.50;5052902;28;20225;-60
2022/06/01 06:43:44;;;;;;;4.30;4.00;;;16.60;99.90;;;-141.84;60.93;18681.97;5064749;28;20667;-58
2022/06/01 06:46:15;;;;;;;4.80;4.20;;;16.70;99.90;;;-141.84;57.08;18779.50;5071216;28;20212;-60
2022/06/01 06:48:48;;;;;;;5.40;4.78;;;16.80;99.90;;;-141.84;58.68;18736.84;5071396;28;20189;-60
2022/06/01 06:51:19;;;;;;;5.80;4.43;;;16.80;99.90;;;-141.84;60.38;18671.81;5070699;28;20225;-60
2022/06/01 06:53:48;;;;;;;5.75;4.60;;;16.80;99.90;;;-141.84;60.49;18667.75;5070782;28;20224;-60
2022/06/01 06:56:20;;;;;;;5.60;5.10;;;16.50;99.90;;;-141.84;60.16;18690.09;5070557;28;20307;-60
2022/06/01 06:58:49;;;;;;;5.47;4.97;;;16.40;99.90;;;-141.84;61.89;18651.50;5069466;28;20719;-60
2022/06/01 07:01:18;;;;;;;5.55;4.85;;;16.30;99.90;;;-141.84;62.32;18637.28;5070713;28;20201;-59
2022/06/01 07:03:45;;;;;;;5.50;5.10;;;16.30;99.90;;;-141.84;59.74;18684.00;5070801;28;20230;-60
2022/06/01 07:06:20;;;;;;;6.72;5.03;;;16.20;99.90;;;-141.84;59.89;18696.19;5070552;28;20220;-60
2022/06/01 07:08:52;;;;;;;5.55;5.15;;;16.30;99.90;;;-141.84;61.29;18614.94;5070507;28;20228;-60
2022/06/01 07:11:25;;;;;;;5.93;4.95;;;16.20;99.90;;;-141.84;60.24;18700.25;5070668;28;20236;-59
2022/06/01 07:13:54;;;;;;;5.18;4.78;;;16.00;99.90;;;-141.84;61.45;18621.03;5070427;28;20231;-61
2022/06/01 07:16:26;;;;;;;5.20;4.57;;;15.80;99.90;;;-141.84;61.32;18608.84;5070289;28;21834;-60
2022/06/01 07:18:56;;;;;;;4.53;4.13;;;15.50;99.90;;;-141.84;63.54;18539.75;5071097;28;20189;-60
2022/06/01 07:21:25;;;;;;;5.57;5.07;;;15.30;99.90;;;-141.84;64.67;18503.19;5070248;28;20232;-54
2022/06/01 07:23:59;;;;;;;5.57;5.07;;;15.00;99.90;;;-141.84;65.95;18456.47;5070249;28;20258;-57
2022/06/01 07:26:32;;;;;;;6.10;5.50;;;14.90;99.90;;;-141.84;67.39;18397.53;5070213;28;20332;-59
2022/06/01 07:29:01;;;;;;;6.05;5.55;;;14.70;99.90;;;-141.84;68.37;18397.53;5070493;28;20232;-61
2022/06/01 07:31:30;;;;;;;7.10;5.20;;;14.80;99.90;;;-141.84;67.36;18430.06;5070198;28;20228;-61
2022/06/01 07:33:59;;;;;;;6.22;5.20;;;14.90;99.90;;;-141.84;65.32;18446.31;5070589;28;20235;-61
2022/06/01 07:36:30;;;;;;;5.40;5.00;;;14.90;99.90;;;-141.84;65.04;18468.66;5070097;28;20311;-60
2022/06/01 07:44:35;;;;;;;6.80;6.18;;;14.90;99.90;;;-141.84;68.70;18371.13;5069562;28;20227;-60
2022/06/01 07:47:04;;;;;;;5.22;4.72;;;14.70;99.90;;;-141.84;67.02;18379.25;5069877;28;20312;-60
2022/06/01 07:49:52;;;;;;;6.15;5.55;;;14.70;99.90;;;-141.84;67.84;18326.44;5069798;28;20240;-60
2022/06/01 07:52:41;;;;;;;6.47;5.40;;;14.60;99.90;;;-141.84;68.45;18316.28;5070026;28;20244;-59
2022/06/01 07:55:10;;;;;;;5.63;5.13;;;14.60;99.90;;;-141.84;69.60;18314.25;5069789;28;20683;-59
2022/06/01 07:57:38;;;;;;;5.13;4.63;;;14.60;99.90;;;-141.84;69.64;18275.66;5070165;28;20213;-59
2022/06/01 08:00:08;;;;;;;5.60;5.10;;;14.50;99.90;;;-141.84;72.52;18170.00;5069659;28;20220;-59
2022/06/01 08:02:38;;;;;;;4.78;4.38;;;14.50;99.90;;;-141.84;72.67;18115.16;5069786;28;20299;-59
2022/06/01 08:05:07;;;;;;;4.40;4.00;;;14.30;99.90;;;-141.84;73.45;18044.06;5069759;28;20224;-60
2022/06/01 08:07:36;;;;;;;4.97;4.50;;;14.30;99.90;;;-141.84;76.47;17909.97;5070153;28;20220;-60
2022/06/01 08:10:08;;;;;;;5.65;5.15;;;14.00;99.90;;;-141.84;78.99;17717.00;5069797;28;20205;-60
2022/06/01 08:15:22;;;;;;;5.17;3.90;;;13.90;99.90;;;-141.84;81.22;17552.47;5069660;28;20835;-60
2022/06/01 08:17:53;;;;;;;4.68;4.20;;;13.80;99.90;;;-141.84;83.20;17477.31;5069755;28;20251;-61
2022/06/01 08:20:22;;;;;;;5.90;4.40;;;13.60;99.90;;;-141.84;85.42;17385.94;5069591;28;20244;-60
2022/06/01 08:22:51;;;;;;;5.23;3.87;;;13.50;99.90;;;-141.84;88.54;17264.06;5069936;28;20225;-60
2022/06/01 08:25:27;;;;;;;4.70;4.30;;;13.30;99.90;;;-141.84;91.85;17164.53;5069904;28;20196;-60
2022/06/01 08:27:55;;;;;;;5.43;4.13;;;13.20;99.90;;;-141.84;93.88;17014.25;5069961;28;20500;-61
2022/06/01 08:30:26;;;;;;;4.93;4.50;;;13.10;99.90;;;-141.84;95.20;16904.59;5069439;28;20307;-59
2022/06/01 08:32:56;;;;;;;6.07;4.70;;;13.20;99.90;;;-141.84;93.99;16916.78;5069490;28;20248;-60
2022/06/01 08:35:29;;;;;;;4.93;4.43;;;13.30;99.90;;;-141.84;92.86;16973.63;5069240;28;20224;-61
2022/06/01 08:37:59;;;;;;;4.27;3.90;;;13.40;99.90;;;-141.84;92.55;16975.66;5069684;28;20369;-59
2022/06/01 08:40:34;;;;;;;4.67;4.27;;;13.50;99.90;;;-141.84;91.05;17052.84;5069480;28;20234;-58
2022/06/01 08:43:06;;;;;;;4.70;4.20;;;13.50;99.90;;;-141.84;91.38;17022.38;5069829;28;20676;-53
2022/06/01 08:45:35;;;;;;;4.57;4.17;;;13.50;99.90;;;-141.84;91.35;17022.38;5069749;28;20212;-61
2022/06/01 08:48:06;;;;;;;4.20;3.90;;;13.50;99.90;;;-141.84;90.33;17097.53;5069507;28;20228;-60
2022/06/01 08:50:38;;;;;;;4.00;3.60;;;13.50;99.90;;;-141.84;90.96;17026.44;5072396;28;20643;-61
2022/06/01 08:53:10;;;;;;;4.07;3.77;;;13.60;99.90;;;-141.84;88.97;17128.00;5073121;28;20238;-59
2022/06/01 08:55:51;;;;;;;3.50;3.20;;;13.70;99.90;;;-141.84;87.65;17199.06;5073022;28;20692;-60
2022/06/01 08:58:31;;;;;;;3.50;3.20;;;13.90;99.90;;;-141.84;87.71;17270.16;5053208;28;20205;-60
2022/06/01 09:01:07;;;;;;;3.72;3.20;;;14.10;99.90;;;-141.84;83.79;17457.03;5053774;28;20291;-59
2022/06/01 09:03:41;;;;;;;3.07;2.77;;;14.30;99.90;;;-141.84;82.59;17570.75;5053459;28;20302;-60
2022/06/01 09:06:19;;;;;;;3.60;3.25;;;14.60;99.90;;;-141.84;79.51;17859.19;5052576;28;20235;-60
2022/06/01 09:08:54;;;;;;;3.92;3.60;;;14.90;99.90;;;-141.84;78.96;17907.94;5052915;28;20312;-60
2022/06/01 09:11:32;;;;;;;3.13;2.90;;;15.20;99.90;;;-141.84;79.24;17918.09;5057862;28;20216;-61
2022/06/01 09:14:10;;;;;;;3.20;3.00;;;15.30;99.90;;;-141.84;78.82;17905.91;5073135;28;20281;-61
2022/06/01 09:16:43;;;;;;;2.90;2.70;;;15.20;99.90;;;-141.84;79.01;17912.00;5072655;28;20243;-61
2022/06/01 09:19:17;;;;;;;2.70;2.50;;;15.20;99.90;;;-141.84;78.68;17938.44;5072565;28;20192;-60
2022/06/01 09:24:42;;;;;;;2.25;2.08;;;15.60;99.90;;;-141.84;74.74;18237.06;5073054;28;20279;-61
2022/06/01 09:27:14;;;;;;;3.28;2.25;;;16.00;99.90;;;-141.84;72.72;18320.34;5072584;28;20289;-61
2022/06/01 09:29:48;;;;;;;2.15;1.95;;;16.30;99.90;;;-141.84;65.52;18556.00;5072375;28;20229;-61
2022/06/01 09:32:28;;;;;;;2.13;1.98;;;16.60;99.90;;;-141.84;63.84;18623.06;5072699;28;20228;-61
2022/06/01 09:35:02;;;;;;;1.98;1.58;;;16.80;99.90;;;-141.84;66.74;18649.47;5072092;28;20311;-61
2022/06/01 09:37:37;;;;;;;2.47;1.90;;;16.80;99.90;;;-141.84;67.89;18576.31;5072407;28;20232;-58
2022/06/01 09:40:21;;;;;;;2.63;2.10;;;16.80;99.90;;;-141.84;66.33;18612.91;5072219;28;20682;-60
2022/06/01 09:42:54;;;;;;;2.60;2.40;;;16.90;99.90;;;-141.84;68.34;18543.81;5072717;28;20207;-59
2022/06/01 09:45:26;;;;;;;2.92;2.70;;;16.70;99.90;;;-141.84;70.56;18513.34;5072248;28;20250;-59
2022/06/01 09:48:11;;;;;;;2.67;2.03;;;16.60;99.90;;;-141.84;71.68;18464.59;5072189;28;20220;-60
2022/06/01 09:50:44;;;;;;;2.28;2.08;;;16.50;99.90;;;-141.84;70.62;18468.66;5072005;28;20235;-60
2022/06/01 09:53:21;;;;;;;2.10;2.00;;;16.50;99.90;;;-141.84;68.52;18495.06;5071996;28;20754;-60
2022/06/01 09:55:55;;;;;;;2.38;2.17;;;16.30;99.90;;;-141.84;71.74;18436.16;5072018;28;20213;-59
2022/06/01 10:06:57;;;;;;;3.67;2.30;;;17.10;99.90;;;-141.84;61.29;18805.91;5071863;28;20644;-58
2022/06/01 10:09:28;;;;;;;2.25;2.05;;;17.50;99.90;;;-141.84;60.76;18812.00;5071683;28;20236;-56
2022/06/01 10:12:19;;;;;;;1.90;1.40;;;17.70;99.90;;;-141.84;52.37;19015.19;5071301;28;20220;-59
2022/06/01 10:14:54;;;;;;;2.80;1.40;;;18.00;99.90;;;-141.84;51.31;18986.75;5071775;28;20222;-60
2022/06/01 10:17:29;;;;;;;1.80;1.35;;;18.00;99.90;;;-141.84;49.95;19029.44;5071751;28;20228;-60
2022/06/01 10:20:11;;;;;;;1.58;1.30;;;17.90;99.90;;;-141.84;50.19;18998.94;5071469;28;20793;-59
2022/06/01 10:22:51;;;;;;;1.40;1.30;;;17.80;99.90;;;-141.84;50.91;18952.22;5071431;28;20858;-60
2022/06/01 10:25:28;;;;;;;1.90;1.38;;;17.70;99.90;;;-141.84;51.52;18970.50;5071589;28;20184;-60
2022/06/01 10:28:02;;;;;;;1.33;1.23;;;17.70;99.90;;;-141.84;50.47;18978.63;5054213;28;20704;-59
2022/06/01 10:30:56;;;;;;;1.73;1.60;;;17.80;99.90;;;-141.84;50.52;19003.00;5051403;28;20579;-60
2022/06/01 10:33:32;;;;;;;1.38;1.17;;;17.80;99.90;;;-141.84;49.68;19017.25;5051504;28;20279;-60
2022/06/01 10:36:16;;;;;;;1.38;1.27;;;17.80;99.90;;;-141.84;50.40;18962.38;5071188;28;20228;-60
2022/06/01 10:38:53;;;;;;;1.25;1.15;;;17.80;99.90;;;-141.84;49.50;19051.78;5071635;28;20228;-59
2022/06/01 10:41:29;;;;;;;1.23;1.00;;;17.90;99.90;;;-141.84;47.17;19092.41;5071241;28;20224;-60
2022/06/01 10:44:06;;;;;;;1.33;1.10;;;17.90;99.90;;;-141.84;47.00;19153.38;5071396;28;20589;-59
2022/06/01 10:46:50;;;;;;;2.03;1.33;;;18.00;99.90;;;-141.84;48.82;19074.13;5071575;28;20303;-60
2022/06/01 10:49:39;;;;;;;1.38;1.27;;;18.00;99.90;;;-141.84;48.36;19094.44;5071134;28;20201;-59